Time;durP1;ratioP1;P1;durP2;ratioP2;P2;SDS_P1;SDS_P2;PMS_P1;PMS_P2;Temp;Humidity;BMP_temperature;BMP_pressure;BME280_temperature;BME280_humidity;BME280_pressure;Samples;Min_cycle;Max_cycle;Signal;HPM_P1;HPM_P2
2023/11/12 00:01:49;;;;;;;;;;;;;;;3.63;100.00;95736.56;5128197;28;19956;-74
2023/11/12 00:04:14;;;;;;;;;;;;;;;3.66;100.00;95743.16;5110892;28;19984;-74
2023/11/12 00:06:40;;;;;;;;;;;;;;;3.67;100.00;95736.97;5110788;28;19939;-75
2023/11/12 00:09:08;;;;;;;;;;;;;;;3.68;100.00;95742.97;5127737;28;20144;-73
2023/11/12 00:11:34;;;;;;;;;;;;;;;3.65;100.00;95736.38;5128138;28;19939;-76
2023/11/12 00:14:00;;;;;;;;;;;;;;;3.65;100.00;95738.97;5128856;28;19941;-76
2023/11/12 00:16:27;;;;;;;;;;;;;;;3.65;100.00;95733.78;5127926;28;19999;-76
2023/11/12 00:18:54;;;;;;;;;;;;;;;3.64;100.00;95721.81;5127959;28;19941;-76
2023/11/12 00:21:20;;;;;;;;;;;;;;;3.63;100.00;95718.44;5127292;28;19971;-75
2023/11/12 00:23:46;;;;;;;;;;;;;;;3.61;100.00;95717.00;5126676;28;19973;-76
2023/11/12 00:26:13;;;;;;;;;;;;;;;3.62;100.00;95716.03;5128644;28;20234;-76
2023/11/12 00:28:40;;;;;;;;;;;;;;;3.63;100.00;95723.63;5127862;28;20126;-75
2023/11/12 00:31:06;;;;;;;;;;;;;;;3.65;100.00;95720.81;5128305;28;19943;-76
2023/11/12 00:33:32;;;;;;;;;;;;;;;3.63;100.00;95709.81;5127721;28;19933;-76
2023/11/12 00:35:58;;;;;;;;;;;;;;;3.61;100.00;95709.22;5127615;28;19938;-75
2023/11/12 00:38:24;;;;;;;;;;;;;;;3.60;100.00;95697.25;5127599;28;19940;-76
2023/11/12 00:40:50;;;;;;;;;;;;;;;3.61;100.00;95698.84;5127731;28;19949;-76
2023/11/12 00:43:16;;;;;;;;;;;;;;;3.61;100.00;95691.91;5127394;28;19960;-77
2023/11/12 00:45:42;;;;;;;;;;;;;;;3.58;100.00;95694.84;5127554;28;19940;-75
2023/11/12 00:48:08;;;;;;;;;;;;;;;3.57;100.00;95685.50;5127778;28;19939;-75
2023/11/12 00:50:34;;;;;;;;;;;;;;;3.55;100.00;95690.06;5127552;28;19963;-72
2023/11/12 00:53:00;;;;;;;;;;;;;;;3.52;100.00;95689.66;5127371;28;19942;-71
2023/11/12 00:55:26;;;;;;;;;;;;;;;3.49;100.00;95682.25;5127819;28;19941;-72
2023/11/12 00:57:52;;;;;;;;;;;;;;;3.49;100.00;95683.06;5128043;28;20010;-71
2023/11/12 01:00:18;;;;;;;;;;;;;;;3.51;100.00;95685.44;5127188;28;19931;-71
2023/11/12 01:02:43;;;;;;;;;;;;;;;3.49;100.00;95683.06;5127003;28;20188;-71
2023/11/12 01:05:09;;;;;;;;;;;;;;;3.48;100.00;95680.66;5127131;28;19944;-71
2023/11/12 01:07:36;;;;;;;;;;;;;;;3.44;100.00;95681.03;5126996;28;19935;-77
2023/11/12 01:10:02;;;;;;;;;;;;;;;3.46;100.00;95678.25;5126908;28;20127;-76
2023/11/12 01:12:28;;;;;;;;;;;;;;;3.47;100.00;95663.50;5126967;28;19935;-77
2023/11/12 01:14:54;;;;;;;;;;;;;;;3.48;100.00;95662.50;5126505;28;19937;-76
2023/11/12 01:17:20;;;;;;;;;;;;;;;3.49;100.00;95669.31;5126889;28;19943;-76
2023/11/12 01:19:46;;;;;;;;;;;;;;;3.49;100.00;95670.09;5125812;28;19975;-76
2023/11/12 01:22:11;;;;;;;;;;;;;;;3.51;100.00;95668.13;5126669;28;20051;-75
2023/11/12 01:24:37;;;;;;;;;;;;;;;3.51;100.00;95662.09;5126763;28;20244;-76
2023/11/12 01:27:04;;;;;;;;;;;;;;;3.52;100.00;95663.72;5127494;28;20222;-76
2023/11/12 01:29:30;;;;;;;;;;;;;;;3.55;100.00;95668.50;5126669;28;19938;-76
2023/11/12 01:31:56;;;;;;;;;;;;;;;3.53;100.00;95666.13;5127367;28;19934;-76
2023/11/12 01:34:22;;;;;;;;;;;;;;;3.55;100.00;95663.31;5126623;28;20229;-76
2023/11/12 01:36:48;;;;;;;;;;;;;;;3.54;100.00;95659.94;5126470;28;19962;-76
2023/11/12 01:39:14;;;;;;;;;;;;;;;3.53;100.00;95658.34;5126473;28;19944;-76
2023/11/12 01:41:39;;;;;;;;;;;;;;;3.54;100.00;95659.94;5127088;28;19988;-75
2023/11/12 01:44:05;;;;;;;;;;;;;;;3.55;100.00;95661.56;5126258;28;19957;-75
2023/11/12 01:46:32;;;;;;;;;;;;;;;3.57;100.00;95656.16;5107996;28;19933;-75
2023/11/12 01:48:58;;;;;;;;;;;;;;;3.56;100.00;95650.19;5125166;28;19935;-75
2023/11/12 01:51:24;;;;;;;;;;;;;;;3.56;100.00;95647.59;5125013;28;19973;-76
2023/11/12 01:53:51;;;;;;;;;;;;;;;3.56;100.00;95657.94;5108723;28;19950;-75
2023/11/12 01:56:18;;;;;;;;;;;;;;;3.58;100.00;95647.41;5125739;28;19937;-75
2023/11/12 01:58:44;;;;;;;;;;;;;;;3.58;100.00;95642.22;5125413;28;19934;-71
2023/11/12 02:01:10;;;;;;;;;;;;;;;3.60;100.00;95635.84;5126560;28;19933;-71
2023/11/12 02:03:36;;;;;;;;;;;;;;;3.61;100.00;95634.84;5107700;28;20000;-76
2023/11/12 02:06:03;;;;;;;;;;;;;;;3.61;100.00;95629.69;5125887;28;19941;-76
2023/11/12 02:08:30;;;;;;;;;;;;;;;3.62;100.00;95625.28;5125879;28;19936;-77
2023/11/12 02:10:57;;;;;;;;;;;;;;;3.61;100.00;95621.06;5125318;27;20226;-76
2023/11/12 02:13:22;;;;;;;;;;;;;;;3.60;100.00;95622.88;5125760;28;19931;-77
2023/11/12 02:15:50;;;;;;;;;;;;;;;3.59;100.00;95616.09;5125735;28;20128;-76
2023/11/12 02:18:16;;;;;;;;;;;;;;;3.56;100.00;95608.69;5126206;28;19934;-74
2023/11/12 02:20:45;;;;;;;;;;;;;;;3.54;100.00;95610.69;5125618;28;20237;-71
2023/11/12 02:23:12;;;;;;;;;;;;;;;3.50;100.00;95604.28;5124969;28;19956;-71
2023/11/12 02:25:38;;;;;;;;;;;;;;;3.47;100.00;95602.09;5125506;28;19945;-71
2023/11/12 02:28:05;;;;;;;;;;;;;;;3.40;100.00;95599.47;5125435;28;19939;-71
2023/11/12 02:30:31;;;;;;;;;;;;;;;3.36;100.00;95587.91;5126051;28;19939;-71
2023/11/12 02:32:57;;;;;;;;;;;;;;;3.31;100.00;95579.91;5125941;28;19980;-71
2023/11/12 02:35:23;;;;;;;;;;;;;;;3.28;100.00;95579.50;5125354;28;19940;-76
2023/11/12 02:37:49;;;;;;;;;;;;;;;3.23;100.00;95582.66;5124269;28;19943;-71
2023/11/12 02:40:16;;;;;;;;;;;;;;;3.20;100.00;95581.25;5125238;28;20112;-76
2023/11/12 02:42:42;;;;;;;;;;;;;;;3.17;100.00;95586.84;5125972;28;20275;-76
2023/11/12 02:45:10;;;;;;;;;;;;;;;3.14;100.00;95586.41;5124065;28;19963;-76
2023/11/12 02:47:36;;;;;;;;;;;;;;;3.08;100.00;95574.22;5123982;28;20216;-76
2023/11/12 02:50:05;;;;;;;;;;;;;;;3.03;100.00;95565.22;5124871;28;19980;-76
2023/11/12 02:52:32;;;;;;;;;;;;;;;2.99;100.00;95565.81;5125512;28;20142;-76
2023/11/12 02:54:59;;;;;;;;;;;;;;;2.95;100.00;95564.59;5124999;28;19934;-73
2023/11/12 02:57:25;;;;;;;;;;;;;;;2.90;100.00;95556.59;5125497;28;19947;-76
2023/11/12 02:59:51;;;;;;;;;;;;;;;2.86;100.00;95561.38;5125430;28;19940;-76
2023/11/12 03:02:17;;;;;;;;;;;;;;;2.83;100.00;95557.38;5124421;28;19958;-75
2023/11/12 03:04:43;;;;;;;;;;;;;;;2.81;100.00;95561.13;5125323;28;19939;-76
2023/11/12 03:07:09;;;;;;;;;;;;;;;2.76;100.00;95564.28;5125076;28;19980;-75
2023/11/12 03:09:35;;;;;;;;;;;;;;;2.73;100.00;95567.28;5124750;28;20228;-75
2023/11/12 03:12:03;;;;;;;;;;;;;;;2.70;100.00;95561.66;5123701;28;20229;-75
2023/11/12 03:14:33;;;;;;;;;;;;;;;2.65;100.00;95564.84;5123937;28;19942;-71
2023/11/12 03:16:59;;;;;;;;;;;;;;;2.61;100.00;95548.88;5124635;28;19943;-77
2023/11/12 03:19:25;;;;;;;;;;;;;;;2.57;100.00;95549.44;5124653;28;19942;-78
2023/11/12 03:21:55;;;;;;;;;;;;;;;2.53;100.00;95543.06;5124828;28;19979;-77
2023/11/12 03:24:21;;;;;;;;;;;;;;;2.50;100.00;95546.00;5125157;28;19939;-77
2023/11/12 03:26:50;;;;;;;;;;;;;;;2.45;100.00;95536.22;5125077;28;19938;-78
2023/11/12 03:29:16;;;;;;;;;;;;;;;2.41;100.00;95527.25;5124553;28;19938;-76
2023/11/12 03:31:44;;;;;;;;;;;;;;;2.41;100.00;95529.81;5124559;28;19935;-75
2023/11/12 03:34:10;;;;;;;;;;;;;;;2.39;100.00;95530.03;5123711;28;19937;-73
2023/11/12 03:36:37;;;;;;;;;;;;;;;2.38;100.00;95528.41;5128823;28;19941;-74
2023/11/12 03:39:03;;;;;;;;;;;;;;;2.36;100.00;95521.84;5128814;28;19944;-73
2023/11/12 03:41:28;;;;;;;;;;;;;;;2.37;100.00;95536.38;5128704;28;20230;-74
2023/11/12 03:43:54;;;;;;;;;;;;;;;2.33;100.00;95517.84;5128551;28;19961;-73
2023/11/12 03:46:20;;;;;;;;;;;;;;;2.31;100.00;95513.84;5129154;28;20217;-73
2023/11/12 03:48:46;;;;;;;;;;;;;;;2.30;100.00;95520.00;5128585;28;19958;-73
2023/11/12 03:51:12;;;;;;;;;;;;;;;2.29;100.00;95505.47;5128475;28;20267;-71
2023/11/12 03:53:38;;;;;;;;;;;;;;;2.29;100.00;95498.53;5128994;28;20217;-76
2023/11/12 03:56:04;;;;;;;;;;;;;;;2.28;100.00;95503.88;5128380;28;19938;-76
2023/11/12 03:58:30;;;;;;;;;;;;;;;2.26;100.00;95492.91;5128423;28;19958;-76
2023/11/12 04:00:57;;;;;;;;;;;;;;;2.26;100.00;95491.13;5129058;28;20222;-75
2023/11/12 04:03:23;;;;;;;;;;;;;;;2.27;100.00;95489.31;5128929;28;20236;-75
2023/11/12 04:05:48;;;;;;;;;;;;;;;2.26;100.00;95485.94;5128714;28;19939;-76
2023/11/12 04:08:14;;;;;;;;;;;;;;;2.28;100.00;95478.00;5129009;28;19942;-73
2023/11/12 04:10:40;;;;;;;;;;;;;;;2.28;100.00;95476.22;5128145;28;20182;-71
2023/11/12 04:13:06;;;;;;;;;;;;;;;2.29;100.00;95477.00;5128935;28;19935;-75
2023/11/12 04:15:32;;;;;;;;;;;;;;;2.28;100.00;95476.22;5126859;28;20228;-75
2023/11/12 04:17:58;;;;;;;;;;;;;;;2.28;100.00;95471.03;5127986;28;20008;-75
2023/11/12 04:20:28;;;;;;;;;;;;;;;2.27;100.00;95466.03;5127607;28;19947;-76
2023/11/12 04:22:58;;;;;;;;;;;;;;;2.25;100.00;95471.44;5126702;28;19957;-75
2023/11/12 04:25:24;;;;;;;;;;;;;;;2.24;100.00;95464.66;5127290;28;20241;-75
2023/11/12 04:27:50;;;;;;;;;;;;;;;2.22;100.00;95459.66;5128337;28;19950;-72
2023/11/12 04:30:16;;;;;;;;;;;;;;;2.21;100.00;95467.63;5127754;28;19935;-74
2023/11/12 04:32:44;;;;;;;;;;;;;;;2.19;100.00;95465.22;5127706;28;19984;-75
2023/11/12 04:35:13;;;;;;;;;;;;;;;2.18;100.00;95461.06;5128203;28;19935;-75
2023/11/12 04:37:39;;;;;;;;;;;;;;;2.16;100.00;95462.19;5128083;28;19943;-75
2023/11/12 04:40:06;;;;;;;;;;;;;;;2.15;100.00;95465.78;5127592;28;19935;-75
2023/11/12 04:42:35;;;;;;;;;;;;;;;2.14;100.00;95472.75;5127409;28;19958;-75
2023/11/12 04:45:01;;;;;;;;;;;;;;;2.15;100.00;95470.97;5127010;28;19965;-75
2023/11/12 04:47:27;;;;;;;;;;;;;;;2.14;100.00;95474.53;5126158;28;19931;-75
2023/11/12 04:49:52;;;;;;;;;;;;;;;2.13;100.00;95478.13;5127330;28;19963;-77
2023/11/12 04:52:18;;;;;;;;;;;;;;;2.12;100.00;95482.50;5127347;28;19939;-77
2023/11/12 04:54:47;;;;;;;;;;;;;;;2.11;100.00;95482.66;5126979;28;19946;-77
2023/11/12 04:57:13;;;;;;;;;;;;;;;2.08;100.00;95470.94;5127212;28;19939;-77
2023/11/12 04:59:40;;;;;;;;;;;;;;;2.05;100.00;95471.28;5127369;28;19934;-77
2023/11/12 05:02:06;;;;;;;;;;;;;;;2.01;100.00;95470.06;5127054;28;20120;-77
2023/11/12 05:04:32;;;;;;;;;;;;;;;1.98;100.00;95473.03;5127040;28;19942;-77
2023/11/12 05:06:58;;;;;;;;;;;;;;;1.97;100.00;95466.25;5127006;28;19934;-72
2023/11/12 05:09:24;;;;;;;;;;;;;;;1.94;100.00;95467.44;5127016;28;19936;-72
2023/11/12 05:11:50;;;;;;;;;;;;;;;1.92;100.00;95482.34;5126477;28;19960;-72
2023/11/12 05:14:15;;;;;;;;;;;;;;;1.91;100.00;95485.91;5126915;28;19991;-72
2023/11/12 05:16:42;;;;;;;;;;;;;;;1.91;100.00;95495.44;5127352;28;19940;-72
2023/11/12 05:19:08;;;;;;;;;;;;;;;1.91;100.00;95500.59;5127096;28;19941;-72
2023/11/12 05:21:33;;;;;;;;;;;;;;;1.89;100.00;95502.59;5126744;28;19938;-75
2023/11/12 05:23:59;;;;;;;;;;;;;;;1.87;100.00;95499.38;5126689;28;19951;-76
2023/11/12 05:26:25;;;;;;;;;;;;;;;1.85;100.00;95506.53;5126686;28;20249;-71
2023/11/12 05:28:51;;;;;;;;;;;;;;;1.83;100.00;95501.56;5126850;28;19938;-70
2023/11/12 05:31:17;;;;;;;;;;;;;;;1.79;100.00;95506.28;5126622;28;19958;-71
2023/11/12 05:33:43;;;;;;;;;;;;;;;1.78;100.00;95502.09;5127037;28;19945;-71
2023/11/12 05:36:09;;;;;;;;;;;;;;;1.77;100.00;95505.69;5126762;28;19948;-71
2023/11/12 05:38:35;;;;;;;;;;;;;;;1.76;100.00;95504.06;5125279;28;19940;-72
2023/11/12 05:41:01;;;;;;;;;;;;;;;1.77;100.00;95513.44;5126455;28;19936;-75
2023/11/12 05:43:27;;;;;;;;;;;;;;;1.76;100.00;95522.16;5126152;28;19952;-73
2023/11/12 05:45:53;;;;;;;;;;;;;;;1.74;100.00;95521.56;5127080;28;20014;-72
2023/11/12 05:48:18;;;;;;;;;;;;;;;1.73;100.00;95519.16;5126295;28;19934;-72
2023/11/12 05:50:45;;;;;;;;;;;;;;;1.70;100.00;95529.84;5126013;28;20258;-72
2023/11/12 05:53:11;;;;;;;;;;;;;;;1.69;100.00;95531.66;5125992;28;19939;-72
2023/11/12 05:55:37;;;;;;;;;;;;;;;1.68;100.00;95534.41;5126087;28;20169;-71
2023/11/12 05:58:03;;;;;;;;;;;;;;;1.66;100.00;95537.19;5125203;28;20158;-76
2023/11/12 06:00:29;;;;;;;;;;;;;;;1.66;100.00;95536.38;5126002;28;20205;-76
2023/11/12 06:02:55;;;;;;;;;;;;;;;1.66;100.00;95526.03;5124724;28;19966;-72
2023/11/12 06:05:21;;;;;;;;;;;;;;;1.66;100.00;95534.63;5125645;28;20133;-72
2023/11/12 06:07:47;;;;;;;;;;;;;;;1.66;100.00;95537.19;5125818;28;19933;-72
2023/11/12 06:10:13;;;;;;;;;;;;;;;1.68;100.00;95539.56;5125832;28;19933;-72
2023/11/12 06:12:39;;;;;;;;;;;;;;;1.70;100.00;95535.84;5104194;28;20220;-72
2023/11/12 06:15:05;;;;;;;;;;;;;;;1.71;100.00;95542.59;5103769;28;19939;-72
2023/11/12 06:17:31;;;;;;;;;;;;;;;1.71;100.00;95536.63;5103990;28;20244;-75
2023/11/12 06:19:57;;;;;;;;;;;;;;;1.69;100.00;95536.81;5103407;28;19934;-78
2023/11/12 06:22:23;;;;;;;;;;;;;;;1.70;100.00;95535.84;5103521;28;20002;-79
2023/11/12 06:24:49;;;;;;;;;;;;;;;1.71;100.00;95537.44;5103328;28;20057;-79
2023/11/12 06:27:15;;;;;;;;;;;;;;;1.72;100.00;95543.41;5103381;28;20225;-78
2023/11/12 06:29:40;;;;;;;;;;;;;;;1.72;100.00;95551.16;5103269;28;20262;-79
2023/11/12 06:32:06;;;;;;;;;;;;;;;1.72;100.00;95557.13;5103375;28;20271;-78
2023/11/12 06:34:34;;;;;;;;;;;;;;;1.72;100.00;95559.72;5103413;28;19936;-78
2023/11/12 06:37:00;;;;;;;;;;;;;;;1.71;100.00;95558.09;5103994;28;19945;-76
2023/11/12 06:39:26;;;;;;;;;;;;;;;1.71;100.00;95552.94;5086802;28;19939;-73
2023/11/12 06:41:52;;;;;;;;;;;;;;;1.73;100.00;95555.34;5103584;28;19979;-72
2023/11/12 06:44:18;;;;;;;;;;;;;;;1.74;100.00;95562.94;5119822;28;20034;-72
2023/11/12 06:46:45;;;;;;;;;;;;;;;1.75;100.00;95564.50;5125268;28;19960;-72
2023/11/12 06:49:10;;;;;;;;;;;;;;;1.78;100.00;95577.06;5125038;28;19936;-72
2023/11/12 06:51:36;;;;;;;;;;;;;;;1.80;100.00;95576.88;5124828;28;19963;-72
2023/11/12 06:54:03;;;;;;;;;;;;;;;1.80;100.00;95582.84;5124954;28;19938;-75
2023/11/12 06:56:31;;;;;;;;;;;;;;;1.83;100.00;95581.69;5124166;28;20198;-76
2023/11/12 06:58:57;;;;;;;;;;;;;;;1.85;100.00;95578.91;5123803;28;19943;-75
2023/11/12 07:01:23;;;;;;;;;;;;;;;1.85;100.00;95578.91;5124857;28;19946;-76
2023/11/12 07:03:49;;;;;;;;;;;;;;;1.85;100.00;95573.72;5125505;28;19947;-76
2023/11/12 07:06:15;;;;;;;;;;;;;;;1.87;100.00;95566.59;5125335;28;19945;-76
2023/11/12 07:08:41;;;;;;;;;;;;;;;1.87;100.00;95566.59;5124574;28;19939;-76
2023/11/12 07:11:07;;;;;;;;;;;;;;;1.89;100.00;95565.44;5125245;28;19941;-76
2023/11/12 07:13:32;;;;;;;;;;;;;;;1.92;100.00;95566.84;5124740;28;19946;-75
2023/11/12 07:15:59;;;;;;;;;;;;;;;1.93;100.00;95578.78;5124627;28;19933;-74
2023/11/12 07:18:24;;;;;;;;;;;;;;;1.94;100.00;95583.78;5123955;28;19939;-74
2023/11/12 07:20:50;;;;;;;;;;;;;;;1.97;100.00;95582.59;5124457;28;19941;-74
2023/11/12 07:23:16;;;;;;;;;;;;;;;2.01;100.00;95591.59;5124334;28;19957;-74
2023/11/12 07:25:42;;;;;;;;;;;;;;;2.03;100.00;95597.38;5124540;28;19972;-74
2023/11/12 07:28:08;;;;;;;;;;;;;;;2.06;100.00;95588.44;5124709;28;19959;-74
2023/11/12 07:30:38;;;;;;;;;;;;;;;2.08;100.00;95591.66;5124991;28;19941;-75
2023/11/12 07:33:05;;;;;;;;;;;;;;;2.11;100.00;95592.09;5124467;28;20116;-78
2023/11/12 07:35:32;;;;;;;;;;;;;;;2.12;100.00;95593.69;5124958;28;19940;-73
2023/11/12 07:37:59;;;;;;;;;;;;;;;2.15;100.00;95595.91;5124400;28;19947;-73
2023/11/12 07:40:26;;;;;;;;;;;;;;;2.18;100.00;95595.53;5124385;28;19955;-74
2023/11/12 07:42:53;;;;;;;;;;;;;;;2.19;100.00;95596.34;5125059;28;19957;-73
2023/11/12 07:45:19;;;;;;;;;;;;;;;2.23;100.00;95593.19;5124339;28;19955;-73
2023/11/12 07:47:45;;;;;;;;;;;;;;;2.26;100.00;95596.38;5124303;28;19946;-73
2023/11/12 07:50:11;;;;;;;;;;;;;;;2.30;100.00;95592.44;5124701;28;20028;-77
2023/11/12 07:52:39;;;;;;;;;;;;;;;2.32;100.00;95588.69;5123790;28;19948;-79
2023/11/12 07:55:05;;;;;;;;;;;;;;;2.38;100.00;95592.31;5125000;28;19936;-79
2023/11/12 07:57:34;;;;;;;;;;;;;;;2.42;100.00;95593.53;5124932;28;19947;-79
2023/11/12 08:00:00;;;;;;;;;;;;;;;2.47;100.00;95595.56;5124159;28;19940;-77
2023/11/12 08:02:26;;;;;;;;;;;;;;;2.54;100.00;95588.63;5124989;28;19937;-78
2023/11/12 08:04:52;;;;;;;;;;;;;;;2.59;100.00;95589.69;5124116;28;20311;-78
2023/11/12 08:07:18;;;;;;;;;;;;;;;2.64;100.00;95594.28;5124220;28;19943;-74
2023/11/12 08:09:46;;;;;;;;;;;;;;;2.71;100.00;95600.31;5124140;28;19936;-78
2023/11/12 08:12:13;;;;;;;;;;;;;;;2.88;100.00;95594.81;5105890;28;19949;-69
2023/11/12 08:14:40;;;;;;;;;;;;;;;3.63;100.00;95590.56;5124263;28;20152;-71
2023/11/12 08:17:05;;;;;;;;;;;;;;;3.97;100.00;95589.66;5124057;28;19940;-70
2023/11/12 08:19:31;;;;;;;;;;;;;;;4.00;100.00;95589.25;5123988;28;19943;-70
2023/11/12 08:21:59;;;;;;;;;;;;;;;3.90;100.00;95593.25;5126283;28;19950;-70
2023/11/12 08:24:25;;;;;;;;;;;;;;;3.76;100.00;95593.22;5127793;28;19954;-70
2023/11/12 08:26:51;;;;;;;;;;;;;;;3.66;100.00;95603.94;5128295;28;20218;-70
2023/11/12 08:29:17;;;;;;;;;;;;;;;3.59;100.00;95599.72;5128016;28;19935;-75
2023/11/12 08:31:43;;;;;;;;;;;;;;;3.55;100.00;95604.53;5127705;28;20132;-74
2023/11/12 08:34:08;;;;;;;;;;;;;;;3.47;100.00;95596.91;5128091;28;20002;-74
2023/11/12 08:36:34;;;;;;;;;;;;;;;3.43;100.00;95595.69;5127466;28;19951;-74
2023/11/12 08:39:03;;;;;;;;;;;;;;;3.42;100.00;95600.09;5128119;28;19939;-73
2023/11/12 08:41:29;;;;;;;;;;;;;;;3.39;100.00;95597.88;5128128;28;19941;-74
2023/11/12 08:43:56;;;;;;;;;;;;;;;3.31;100.00;95599.84;5127264;28;20023;-73
2023/11/12 08:46:23;;;;;;;;;;;;;;;3.43;100.00;95600.88;5128175;28;19935;-73
2023/11/12 08:48:49;;;;;;;;;;;;;;;3.50;100.00;95603.50;5127905;28;20241;-74
2023/11/12 08:51:15;;;;;;;;;;;;;;;3.49;100.00;95604.50;5127114;28;19973;-74
2023/11/12 08:53:41;;;;;;;;;;;;;;;3.45;100.00;95612.66;5127264;28;20211;-73
2023/11/12 08:56:10;;;;;;;;;;;;;;;3.38;100.00;95606.66;5126151;28;19981;-74
2023/11/12 08:58:36;;;;;;;;;;;;;;;3.37;100.00;95614.63;5127969;28;19954;-74
2023/11/12 09:01:03;;;;;;;;;;;;;;;3.34;100.00;95615.81;5127633;28;20145;-73
2023/11/12 09:03:32;;;;;;;;;;;;;;;3.35;100.00;95621.78;5127040;28;19949;-75
2023/11/12 09:05:58;;;;;;;;;;;;;;;3.33;100.00;95621.16;5127008;28;20126;-71
2023/11/12 09:08:24;;;;;;;;;;;;;;;3.32;100.00;95620.38;5127556;28;19938;-71
2023/11/12 09:10:50;;;;;;;;;;;;;;;3.33;100.00;95619.38;5126802;28;19937;-71
2023/11/12 09:13:15;;;;;;;;;;;;;;;3.36;100.00;95623.38;5126909;28;19934;-70
2023/11/12 09:15:42;;;;;;;;;;;;;;;3.34;100.00;95622.75;5108634;28;20248;-71
2023/11/12 09:18:08;;;;;;;;;;;;;;;3.33;100.00;95629.75;5127628;28;19937;-71
2023/11/12 09:20:34;;;;;;;;;;;;;;;3.37;100.00;95630.16;5126700;28;19930;-75
2023/11/12 09:23:00;;;;;;;;;;;;;;;3.43;100.00;95630.19;5126057;28;19945;-75
2023/11/12 09:25:26;;;;;;;;;;;;;;;3.48;100.00;95632.19;5127197;28;19936;-71
2023/11/12 09:27:52;;;;;;;;;;;;;;;3.51;100.00;95631.81;5127256;28;19947;-71
2023/11/12 09:30:18;;;;;;;;;;;;;;;3.56;100.00;95633.84;5126320;28;19938;-71
2023/11/12 09:32:44;;;;;;;;;;;;;;;3.61;100.00;95632.25;5124556;28;19946;-70
2023/11/12 09:35:10;;;;;;;;;;;;;;;3.61;100.00;95632.25;5126755;28;19937;-70
2023/11/12 09:37:37;;;;;;;;;;;;;;;3.62;100.00;95633.06;5126498;28;19935;-70
2023/11/12 09:40:07;;;;;;;;;;;;;;;3.68;100.00;95634.09;5126441;28;19933;-74
2023/11/12 09:42:37;;;;;;;;;;;;;;;3.72;100.00;95622.34;5126293;28;20118;-77
2023/11/12 09:45:05;;;;;;;;;;;;;;;3.76;100.00;95626.09;5124876;28;19970;-76
2023/11/12 09:47:32;;;;;;;;;;;;;;;3.77;100.00;95625.91;5126253;28;19941;-77
2023/11/12 09:49:58;;;;;;;;;;;;;;;3.74;100.00;95631.50;5126111;28;19966;-77
2023/11/12 09:52:25;;;;;;;;;;;;;;;3.72;100.00;95638.69;5126172;28;20273;-77
2023/11/12 09:54:51;;;;;;;;;;;;;;;3.73;100.00;95645.44;5126045;28;19941;-76
2023/11/12 09:57:17;;;;;;;;;;;;;;;3.81;100.00;95647.09;5126081;28;19951;-76
2023/11/12 09:59:43;;;;;;;;;;;;;;;3.85;100.00;95648.28;5125474;28;19936;-74
2023/11/12 10:02:10;;;;;;;;;;;;;;;3.88;100.00;95642.69;5126053;28;19942;-74
2023/11/12 10:04:41;;;;;;;;;;;;;;;3.90;100.00;95650.28;5125844;28;19963;-73
2023/11/12 10:07:07;;;;;;;;;;;;;;;3.94;100.00;95654.09;5126701;28;19933;-74
2023/11/12 10:09:36;;;;;;;;;;;;;;;3.99;100.00;95649.94;5125930;28;19976;-75
2023/11/12 10:12:08;;;;;;;;;;;;;;;4.05;100.00;95645.72;5125816;28;19941;-73
2023/11/12 10:14:35;;;;;;;;;;;;;;;4.04;100.00;95644.16;5125758;28;20117;-74
2023/11/12 10:17:07;;;;;;;;;;;;;;;4.10;100.00;95668.53;5125762;28;19937;-70
2023/11/12 10:19:37;;;;;;;;;;;;;;;4.11;100.00;95665.72;5126451;28;19938;-72
2023/11/12 10:22:06;;;;;;;;;;;;;;;4.13;100.00;95653.34;5125018;28;19938;-71
2023/11/12 10:24:41;;;;;;;;;;;;;;;4.18;100.00;95666.53;5125064;28;20263;-72
2023/11/12 10:27:11;;;;;;;;;;;;;;;4.22;100.00;95665.16;5124861;28;19948;-72
2023/11/12 10:29:37;;;;;;;;;;;;;;;4.23;100.00;95661.53;5125222;28;20124;-72
2023/11/12 10:32:03;;;;;;;;;;;;;;;4.25;100.00;95656.97;5126000;28;19946;-71
2023/11/12 10:34:29;;;;;;;;;;;;;;;4.31;100.00;95660.56;5125073;28;19944;-74
2023/11/12 10:37:15;;;;;;;;;;;;;;;4.32;100.00;95651.78;5125081;28;20128;-74
2023/11/12 10:39:43;;;;;;;;;;;;;;;4.34;100.00;95657.56;5125671;28;19935;-75
2023/11/12 10:42:15;;;;;;;;;;;;;;;4.38;100.00;95665.75;5125096;28;19947;-75
2023/11/12 10:44:42;;;;;;;;;;;;;;;4.42;100.00;95654.00;5123325;28;19965;-75
2023/11/12 10:47:10;;;;;;;;;;;;;;;4.45;100.00;95656.19;5125116;28;19945;-75
2023/11/12 10:49:39;;;;;;;;;;;;;;;4.47;100.00;95660.19;5124744;28;20243;-75
2023/11/12 10:52:08;;;;;;;;;;;;;;;4.45;100.00;95657.00;5125376;28;20027;-75
2023/11/12 10:54:34;;;;;;;;;;;;;;;4.48;100.00;95656.59;5124866;28;19928;-72
2023/11/12 10:57:01;;;;;;;;;;;;;;;4.43;100.00;95663.38;5123463;28;19991;-75
2023/11/12 10:59:28;;;;;;;;;;;;;;;4.36;100.00;95659.97;5124655;28;19932;-75
2023/11/12 11:01:56;;;;;;;;;;;;;;;4.35;100.00;95661.78;5125375;28;19950;-75
2023/11/12 11:04:22;;;;;;;;;;;;;;;4.38;100.00;95660.56;5123062;28;19958;-75
2023/11/12 11:06:48;;;;;;;;;;;;;;;4.40;100.00;95661.97;5125495;28;19940;-75
2023/11/12 11:09:14;;;;;;;;;;;;;;;4.46;100.00;95658.59;5124559;28;20011;-75
2023/11/12 11:11:40;;;;;;;;;;;;;;;4.55;100.00;95659.19;5125243;28;20009;-75
2023/11/12 11:14:23;;;;;;;;;;;;;;;4.58;100.00;95648.41;5124433;28;19956;-76
2023/11/12 11:16:50;;;;;;;;;;;;;;;4.63;100.00;95645.22;5124266;28;19943;-72
2023/11/12 11:19:17;;;;;;;;;;;;;;;4.69;100.00;95636.63;5124510;28;19944;-72
2023/11/12 11:22:03;;;;;;;;;;;;;;;4.77;100.00;95641.63;5123882;28;19946;-71
2023/11/12 11:24:42;;;;;;;;;;;;;;;4.86;100.00;95637.81;5123194;28;19955;-71
2023/11/12 11:27:08;;;;;;;;;;;;;;;4.90;100.00;95638.22;5124534;28;20217;-72
2023/11/12 11:29:34;;;;;;;;;;;;;;;5.00;100.00;95640.41;5123205;28;19938;-74
2023/11/12 11:32:06;;;;;;;;;;;;;;;5.11;100.00;95626.78;5123111;28;19984;-71
2023/11/12 11:34:39;;;;;;;;;;;;;;;5.33;100.00;95629.91;5124686;28;19945;-75
2023/11/12 11:37:05;;;;;;;;;;;;;;;5.56;100.00;95624.22;5124689;28;19936;-75
2023/11/12 11:39:32;;;;;;;;;;;;;;;5.70;100.00;95630.19;5122964;28;19950;-76
2023/11/12 11:42:00;;;;;;;;;;;;;;;5.71;100.00;95626.56;5106192;28;19939;-75
2023/11/12 11:44:39;;;;;;;;;;;;;;;5.70;100.00;95630.19;5122830;28;19958;-76
2023/11/12 11:47:23;;;;;;;;;;;;;;;5.73;100.00;95629.75;5125009;28;19942;-75
2023/11/12 11:49:58;;;;;;;;;;;;;;;5.77;100.00;95635.34;5122802;28;19977;-76
2023/11/12 11:52:28;;;;;;;;;;;;;;;5.81;100.00;95626.91;5124638;28;19944;-73
2023/11/12 11:55:02;;;;;;;;;;;;;;;5.87;100.00;95622.69;5124466;28;20143;-74
2023/11/12 11:57:31;;;;;;;;;;;;;;;5.92;100.00;95622.06;5128223;28;19935;-73
2023/11/12 11:59:58;;;;;;;;;;;;;;;5.97;100.00;95620.47;5128910;28;19942;-73
2023/11/12 12:02:24;;;;;;;;;;;;;;;5.98;100.00;95616.06;5128146;28;19941;-74
2023/11/12 12:04:54;;;;;;;;;;;;;;;6.03;100.00;95617.03;5127922;28;19956;-74
2023/11/12 12:07:22;;;;;;;;;;;;;;;6.09;100.00;95610.22;5128105;28;19937;-74
2023/11/12 12:09:48;;;;;;;;;;;;;;;6.12;100.00;95612.38;5127582;28;20218;-72
2023/11/12 12:12:14;;;;;;;;;;;;;;;6.13;100.00;95616.56;5128693;28;19937;-71
2023/11/12 12:14:41;;;;;;;;;;;;;;;6.10;100.00;95625.59;5128605;28;19961;-71
2023/11/12 12:17:07;;;;;;;;;;;;;;;6.06;100.00;95626.22;5127915;28;19998;-73
2023/11/12 12:19:34;;;;;;;;;;;;;;;6.05;100.00;95625.44;5127772;28;19937;-72
2023/11/12 12:22:00;;;;;;;;;;;;;;;6.04;100.00;95633.44;5127870;28;19948;-71
2023/11/12 12:24:26;;;;;;;;;;;;;;;6.00;100.00;95627.84;5127524;28;19952;-72
2023/11/12 12:26:56;;;;;;;;;;;;;;;5.96;100.00;95628.47;5128290;28;19934;-74
2023/11/12 12:29:24;;;;;;;;;;;;;;;5.93;100.00;95626.28;5127586;28;19945;-72
2023/11/12 12:31:51;;;;;;;;;;;;;;;5.94;100.00;95631.25;5126420;28;19935;-72
2023/11/12 12:34:18;;;;;;;;;;;;;;;5.95;100.00;95632.09;5127451;28;19935;-71
2023/11/12 12:36:54;;;;;;;;;;;;;;;5.94;100.00;95635.66;5127471;28;19936;-71
2023/11/12 12:39:19;;;;;;;;;;;;;;;5.92;100.00;95632.47;5127107;28;20120;-72
2023/11/12 12:41:45;;;;;;;;;;;;;;;5.90;100.00;95636.09;5127993;28;19938;-71
2023/11/12 12:44:18;;;;;;;;;;;;;;;5.89;100.00;95638.91;5127264;28;19967;-74
2023/11/12 12:46:45;;;;;;;;;;;;;;;5.88;100.00;95638.09;5127254;28;19934;-75